Underwood, Minnesota
Current Conditions -  °F | °C
As of 9:34 PM on Wednesday 22 Oct 2014 (Local Time) from KFFM Reporting Station
Overcast Overcast  
Wind Chill: 54°   Ceiling: 1100
Heat Index: 54°   Visibility: 10mi
Dew Point: 54°   Wind: 3mph
Humidity: 100%   Direction: 230°SW
Pressure: 29.94"   Gusts: NA
Location:  46.29°N, 95.87°W
Report Text: KFFM 230234Z AUTO 23003KT 10SM BKN011 BKN065 OVC100 12/12 A2994 RMK AO2
Loading
Personal Weather Stations






























Interactive Weather Map
Tropical Storm Tracking
New forecast layout! Learn more

10-Day Weather Forecast

Advertisements
Track Severe Weather on mobile